createdAt,value
2022-11-28T00:00:37.235Z,13.81
2022-11-28T00:03:22.229Z,14.05
2022-11-28T00:06:07.510Z,15.10
2022-11-28T00:08:53.000Z,14.97
2022-11-28T00:11:37.789Z,14.90
2022-11-28T00:14:22.777Z,15.32
2022-11-28T00:17:07.826Z,16.05
2022-11-28T00:19:52.733Z,16.20
2022-11-28T00:22:37.674Z,15.91
2022-11-28T00:25:22.629Z,16.23
2022-11-28T00:28:07.609Z,16.34
2022-11-28T00:30:52.457Z,16.07
2022-11-28T00:33:37.341Z,16.25
2022-11-28T00:36:22.234Z,17.42
2022-11-28T00:39:07.283Z,17.42
2022-11-28T00:41:52.335Z,17.51
2022-11-28T00:44:37.272Z,17.57
2022-11-28T00:47:22.148Z,17.79
2022-11-28T00:50:06.990Z,17.76
2022-11-28T00:52:51.966Z,17.70
2022-11-28T00:55:36.893Z,17.50
2022-11-28T00:58:21.787Z,18.53
2022-11-28T01:01:06.759Z,18.80
2022-11-28T01:03:51.506Z,18.42
2022-11-28T01:06:36.473Z,18.52
2022-11-28T01:09:21.429Z,18.76
2022-11-28T01:12:06.467Z,18.58
2022-11-28T01:14:51.433Z,19.39
2022-11-28T01:17:36.414Z,19.72
2022-11-28T01:20:21.332Z,19.89
2022-11-28T01:23:06.256Z,19.73
2022-11-28T01:25:51.133Z,19.62
2022-11-28T01:28:36.041Z,19.65
2022-11-28T01:31:21.093Z,19.94
2022-11-28T01:34:05.957Z,19.98
2022-11-28T01:36:50.908Z,19.67
2022-11-28T01:39:35.806Z,19.68
2022-11-28T01:42:20.704Z,18.88
2022-11-28T01:45:05.570Z,18.57
2022-11-28T01:47:50.369Z,18.07
2022-11-28T01:50:35.344Z,18.33
2022-11-28T01:53:20.328Z,18.44
2022-11-28T01:56:05.363Z,17.90
2022-11-28T01:58:50.273Z,17.55
2022-11-28T02:01:35.307Z,18.24
2022-11-28T02:04:20.181Z,18.37
2022-11-28T02:07:05.009Z,17.78
2022-11-28T02:09:49.864Z,17.01
2022-11-28T02:12:34.630Z,16.47
2022-11-28T02:15:19.399Z,15.62
2022-11-28T02:18:04.243Z,14.57
2022-11-28T02:20:49.420Z,13.91
2022-11-28T02:23:34.227Z,14.29
2022-11-28T02:26:19.188Z,13.91
2022-11-28T02:29:04.140Z,14.17
2022-11-28T02:31:49.065Z,13.88
2022-11-28T02:34:33.807Z,13.77
2022-11-28T02:37:18.729Z,13.46
2022-11-28T02:40:03.713Z,13.06
2022-11-28T02:42:48.638Z,12.91
2022-11-28T02:45:33.444Z,12.26
2022-11-28T02:48:18.345Z,12.08
2022-11-28T02:51:03.366Z,12.22
2022-11-28T02:53:48.322Z,11.70
2022-11-28T02:56:33.284Z,12.14
2022-11-28T02:59:18.080Z,11.54
2022-11-28T03:02:03.258Z,11.78
2022-11-28T03:04:48.635Z,11.68
2022-11-28T03:07:33.565Z,12.34
2022-11-28T03:10:18.440Z,11.85
2022-11-28T03:13:03.258Z,12.34
2022-11-28T03:15:48.280Z,12.50
2022-11-28T03:18:33.082Z,11.78
2022-11-28T03:21:18.218Z,11.72
2022-11-28T03:24:03.078Z,11.67
2022-11-28T03:26:48.045Z,11.83
2022-11-28T03:29:32.876Z,11.15
2022-11-28T03:32:17.761Z,10.68
2022-11-28T03:35:02.802Z,10.76
2022-11-28T03:37:47.637Z,10.98
2022-11-28T03:40:32.600Z,10.38
2022-11-28T03:43:17.585Z,11.16
2022-11-28T03:46:02.709Z,10.89
2022-11-28T03:48:47.604Z,10.61
2022-11-28T03:51:32.607Z,10.88
2022-11-28T03:54:17.557Z,11.10
2022-11-28T03:57:02.639Z,11.35
2022-11-28T03:59:47.592Z,10.79
2022-11-28T04:02:32.447Z,10.08
2022-11-28T04:05:17.393Z,10.24
2022-11-28T04:08:02.291Z,10.28
2022-11-28T04:10:47.834Z,10.69
2022-11-28T04:13:32.641Z,10.31
2022-11-28T04:16:17.515Z,10.46
2022-11-28T04:19:02.629Z,10.34
2022-11-28T04:21:47.491Z,10.49
2022-11-28T04:24:32.515Z,9.90
2022-11-28T04:27:17.488Z,9.87
2022-11-28T04:30:02.539Z,10.42
2022-11-28T04:32:47.412Z,9.66
2022-11-28T04:35:32.228Z,9.91
2022-11-28T04:38:17.045Z,10.02
2022-11-28T04:41:02.048Z,10.04
2022-11-28T04:43:47.068Z,9.67
2022-11-28T04:46:31.934Z,9.57
2022-11-28T04:49:16.880Z,9.76
2022-11-28T04:52:01.848Z,9.59
2022-11-28T04:54:46.837Z,9.90
2022-11-28T04:57:31.726Z,9.89
2022-11-28T05:00:16.605Z,9.76
2022-11-28T05:03:01.588Z,8.97
2022-11-28T05:05:46.505Z,9.63
2022-11-28T05:08:31.552Z,9.25
2022-11-28T05:11:16.454Z,8.89
2022-11-28T05:14:01.509Z,8.74
2022-11-28T05:16:46.319Z,8.63
2022-11-28T05:19:31.247Z,8.49
2022-11-28T05:22:16.153Z,8.86
2022-11-28T05:25:01.018Z,8.92
2022-11-28T05:27:45.860Z,8.95
2022-11-28T05:30:30.714Z,9.19
2022-11-28T05:33:15.710Z,8.45
2022-11-28T05:36:00.578Z,8.76
2022-11-28T05:38:45.563Z,8.38
2022-11-28T05:41:30.395Z,8.07
2022-11-28T05:44:15.121Z,8.16
2022-11-28T05:46:59.910Z,8.19
2022-11-28T05:49:45.234Z,8.06
2022-11-28T05:52:30.169Z,8.07
2022-11-28T05:55:15.118Z,8.08
2022-11-28T05:58:00.128Z,8.46
2022-11-28T06:00:45.198Z,8.20
2022-11-28T06:03:30.199Z,8.22
2022-11-28T06:06:15.087Z,8.13
2022-11-28T06:09:00.028Z,8.59
2022-11-28T06:11:44.845Z,8.66
2022-11-28T06:14:29.720Z,8.21
2022-11-28T06:17:14.621Z,8.39
2022-11-28T06:19:59.477Z,8.24
2022-11-28T06:22:44.565Z,7.66
2022-11-28T06:25:29.458Z,7.74
2022-11-28T06:28:14.462Z,7.62
2022-11-28T06:30:59.493Z,7.37
2022-11-28T06:33:44.407Z,7.37
2022-11-28T06:36:29.181Z,7.43
2022-11-28T06:39:14.080Z,7.07
2022-11-28T06:41:59.021Z,7.46
2022-11-28T06:44:43.965Z,6.95
2022-11-28T06:47:28.891Z,7.26
2022-11-28T06:50:13.815Z,6.97
2022-11-28T06:52:58.888Z,6.64
2022-11-28T06:55:43.750Z,7.21
2022-11-28T06:58:28.784Z,7.46
2022-11-28T07:01:13.857Z,7.17
2022-11-28T07:03:58.845Z,7.27
2022-11-28T07:06:43.830Z,7.11
2022-11-28T07:09:28.740Z,6.85
2022-11-28T07:12:13.585Z,6.73
2022-11-28T07:14:58.479Z,6.63
2022-11-28T07:17:43.343Z,7.13
2022-11-28T07:20:28.133Z,6.46
2022-11-28T07:23:13.185Z,6.59
2022-11-28T07:25:58.271Z,6.71
2022-11-28T07:28:43.238Z,7.12
2022-11-28T07:31:28.291Z,7.14
2022-11-28T07:34:13.182Z,6.70
2022-11-28T07:36:58.152Z,7.31
2022-11-28T07:39:43.287Z,7.40
2022-11-28T07:42:28.746Z,7.20
2022-11-28T07:45:13.701Z,7.48
2022-11-28T07:47:58.555Z,7.27
2022-11-28T07:50:43.318Z,7.58
2022-11-28T07:53:28.234Z,7.51
2022-11-28T07:56:13.055Z,7.75
2022-11-28T07:59:01.905Z,7.96
2022-11-28T08:01:48.580Z,7.76
2022-11-28T08:04:33.583Z,7.11
2022-11-28T08:07:18.409Z,6.79
2022-11-28T08:10:03.238Z,7.14
2022-11-28T08:12:48.220Z,7.23
2022-11-28T08:15:33.119Z,6.23
2022-11-28T08:18:17.979Z,6.39
2022-11-28T08:21:03.083Z,6.45
2022-11-28T08:23:48.023Z,6.11
2022-11-28T08:26:32.741Z,6.49
2022-11-28T08:29:17.637Z,6.09
2022-11-28T08:32:02.552Z,6.14
2022-11-28T08:34:47.411Z,6.41
2022-11-28T08:37:32.198Z,6.04
2022-11-28T08:40:17.178Z,6.59
2022-11-28T08:43:02.011Z,5.87
2022-11-28T08:45:46.948Z,5.95
2022-11-28T08:48:31.839Z,5.69
2022-11-28T08:51:16.738Z,5.83
2022-11-28T08:54:01.733Z,5.47
2022-11-28T08:56:46.686Z,5.40
2022-11-28T08:59:31.546Z,5.43
2022-11-28T09:02:16.553Z,5.55
2022-11-28T09:05:01.429Z,5.38
2022-11-28T09:07:46.271Z,5.48
2022-11-28T09:10:31.125Z,5.57
2022-11-28T09:13:16.093Z,5.73
2022-11-28T09:16:01.100Z,6.00
2022-11-28T09:18:45.953Z,4.95
2022-11-28T09:21:33.898Z,4.17
2022-11-28T09:24:18.986Z,3.50
2022-11-28T09:27:03.900Z,3.49
2022-11-28T09:29:48.807Z,3.55
2022-11-28T09:32:33.792Z,2.91
2022-11-28T09:35:18.810Z,2.54
2022-11-28T09:38:03.922Z,2.59
2022-11-28T09:40:48.722Z,2.72
2022-11-28T09:43:33.544Z,2.89
2022-11-28T09:46:18.444Z,2.80
2022-11-28T09:49:03.392Z,2.82
2022-11-28T09:51:48.159Z,3.08
2022-11-28T09:54:33.109Z,3.15
2022-11-28T09:57:18.130Z,4.40
2022-11-28T10:00:03.007Z,4.50
2022-11-28T10:02:47.974Z,3.23
2022-11-28T10:05:32.818Z,2.77
2022-11-28T10:08:17.821Z,2.71
2022-11-28T10:11:02.499Z,2.98
2022-11-28T10:14:07.214Z,2.88
2022-11-28T10:16:52.523Z,2.61
2022-11-28T10:19:54.560Z,2.76
2022-11-28T10:22:42.498Z,2.88
2022-11-28T10:25:27.301Z,2.97
2022-11-28T10:28:12.148Z,2.86
2022-11-28T10:30:57.029Z,2.39
2022-11-28T10:33:41.889Z,2.76
2022-11-28T10:36:26.809Z,2.86
2022-11-28T10:39:11.705Z,2.59
2022-11-28T10:41:56.483Z,2.49
2022-11-28T10:44:41.338Z,2.51
2022-11-28T10:47:26.239Z,2.55
2022-11-28T10:50:11.277Z,2.85
2022-11-28T10:52:55.996Z,2.91
2022-11-28T10:55:40.947Z,2.68
2022-11-28T10:58:25.705Z,2.69
2022-11-28T11:01:10.600Z,2.91
2022-11-28T11:03:55.407Z,2.91
2022-11-28T11:06:47.675Z,3.17
2022-11-28T11:09:45.735Z,3.13
2022-11-28T11:12:30.769Z,3.30
2022-11-28T11:15:15.646Z,3.40
2022-11-28T11:18:00.493Z,3.58
2022-11-28T11:20:45.461Z,3.86
2022-11-28T11:23:35.237Z,3.69
2022-11-28T11:26:23.402Z,3.88
2022-11-28T11:29:08.276Z,4.09
2022-11-28T11:31:53.242Z,4.24
2022-11-28T11:34:37.959Z,4.97
2022-11-28T11:37:22.877Z,4.84
2022-11-28T11:40:07.724Z,4.04
2022-11-28T11:42:52.425Z,4.05
2022-11-28T11:45:37.377Z,3.96
2022-11-28T11:48:22.302Z,4.06
2022-11-28T11:51:07.415Z,3.89
2022-11-28T11:53:52.271Z,3.75
2022-11-28T11:56:37.222Z,3.92
2022-11-28T11:59:22.122Z,3.70
2022-11-28T12:02:07.164Z,3.85
2022-11-28T12:04:55.331Z,4.05
2022-11-28T12:07:40.770Z,4.00
2022-11-28T12:10:25.664Z,3.89
2022-11-28T12:13:10.540Z,3.86
2022-11-28T12:15:55.511Z,3.96
2022-11-28T12:18:40.617Z,3.72
2022-11-28T12:21:25.454Z,3.86
2022-11-28T12:24:10.331Z,3.65
2022-11-28T12:26:55.076Z,3.71
2022-11-28T12:29:40.044Z,3.97
2022-11-28T12:32:24.859Z,3.77
2022-11-28T12:35:09.825Z,3.60
2022-11-28T12:38:10.366Z,4.09
2022-11-28T12:40:56.222Z,3.98
2022-11-28T12:43:41.077Z,4.02
2022-11-28T12:46:26.146Z,4.06
2022-11-28T12:49:11.088Z,4.25
2022-11-28T12:51:55.860Z,4.02
2022-11-28T12:54:40.924Z,3.76
2022-11-28T12:57:25.797Z,3.75
2022-11-28T13:00:10.622Z,3.64
2022-11-28T13:02:55.523Z,3.73
2022-11-28T13:05:40.486Z,3.61
2022-11-28T13:08:25.959Z,3.85
2022-11-28T13:11:10.856Z,4.02
2022-11-28T13:13:55.759Z,3.66
2022-11-28T13:16:40.584Z,3.67
2022-11-28T13:19:25.583Z,3.55
2022-11-28T13:22:10.382Z,3.75
2022-11-28T13:24:55.306Z,3.96
2022-11-28T13:27:40.142Z,5.06
2022-11-28T13:30:25.153Z,3.69
2022-11-28T13:33:09.965Z,3.57
2022-11-28T13:35:54.599Z,3.41
2022-11-28T13:38:48.307Z,3.25
2022-11-28T13:44:44.732Z,2.97
2022-11-28T13:47:30.042Z,2.84
2022-11-28T13:50:15.837Z,3.10
2022-11-28T13:53:00.822Z,2.97
2022-11-28T13:55:45.740Z,2.11
2022-11-28T13:58:30.626Z,2.39
2022-11-28T14:01:15.468Z,1.96
2022-11-28T14:04:00.386Z,1.68
2022-11-28T14:06:45.219Z,1.54
2022-11-28T14:09:30.086Z,1.51
2022-11-28T14:12:15.153Z,1.68
2022-11-28T14:15:00.031Z,1.54
2022-11-28T14:17:45.127Z,1.26
2022-11-28T14:20:29.969Z,1.33
2022-11-28T14:23:15.014Z,1.72
2022-11-28T14:25:59.867Z,1.78
2022-11-28T14:28:44.674Z,2.05
2022-11-28T14:31:32.820Z,1.70
2022-11-28T14:34:17.573Z,1.86
2022-11-28T14:37:02.533Z,2.04
2022-11-28T14:39:47.487Z,2.00
2022-11-28T14:43:01.278Z,2.22
2022-11-28T14:45:37.644Z,2.07
2022-11-28T14:48:22.661Z,1.82
2022-11-28T14:51:07.978Z,1.81
2022-11-28T14:53:54.326Z,2.01
2022-11-28T14:56:39.485Z,2.14
2022-11-28T14:59:24.558Z,2.16
2022-11-28T15:02:09.235Z,2.12
2022-11-28T15:04:54.226Z,2.12
2022-11-28T15:07:39.175Z,2.03
2022-11-28T15:10:24.107Z,2.13
2022-11-28T15:13:08.980Z,1.85
2022-11-28T15:15:53.958Z,1.88
2022-11-28T15:18:38.917Z,1.75
2022-11-28T15:21:23.705Z,1.74
2022-11-28T15:24:08.614Z,1.73
2022-11-28T15:26:57.402Z,1.79
2022-11-28T15:29:42.874Z,1.78
2022-11-28T15:32:27.747Z,1.59
2022-11-28T15:35:12.903Z,1.70
2022-11-28T15:37:58.285Z,1.99
2022-11-28T15:40:43.697Z,1.79
2022-11-28T15:43:28.484Z,2.28
2022-11-28T15:46:13.435Z,1.98
2022-11-28T15:48:58.317Z,2.01
2022-11-28T15:51:43.220Z,2.13
2022-11-28T15:54:28.073Z,2.00
2022-11-28T15:57:13.117Z,2.39
2022-11-28T15:59:57.902Z,2.27
2022-11-28T16:02:42.838Z,2.10
2022-11-28T16:05:27.595Z,2.24
2022-11-28T16:08:13.658Z,2.07
2022-11-28T16:10:58.661Z,2.49
2022-11-28T16:13:43.388Z,2.35
2022-11-28T16:16:28.399Z,2.17
2022-11-28T16:19:13.639Z,2.11
2022-11-28T16:21:58.513Z,1.99
2022-11-28T16:24:43.722Z,1.76
2022-11-28T16:27:28.820Z,1.89
2022-11-28T16:30:13.860Z,1.56
2022-11-28T16:32:58.720Z,1.89
2022-11-28T16:35:43.804Z,1.64
2022-11-28T16:38:29.946Z,1.55
2022-11-28T16:41:15.246Z,1.42
2022-11-28T16:44:00.312Z,1.55
2022-11-28T16:46:45.360Z,1.37
2022-11-28T16:49:30.322Z,1.62
2022-11-28T16:52:15.077Z,1.44
2022-11-28T16:54:59.995Z,1.46
2022-11-28T16:57:44.876Z,1.77
2022-11-28T17:00:29.996Z,2.81
2022-11-28T17:03:14.794Z,2.06
2022-11-28T17:05:59.944Z,1.35
2022-11-28T17:08:45.320Z,1.06
2022-11-28T17:11:30.354Z,1.79
2022-11-28T17:14:15.260Z,1.14
2022-11-28T17:17:03.295Z,0.95
2022-11-28T17:19:48.170Z,1.00
2022-11-28T17:22:38.922Z,0.91
2022-11-28T17:25:25.547Z,1.06
2022-11-28T17:28:10.402Z,1.39
2022-11-28T17:30:55.372Z,1.65
2022-11-28T17:33:44.420Z,1.29
2022-11-28T17:36:29.754Z,1.34
2022-11-28T17:39:14.675Z,1.12
2022-11-28T17:41:59.541Z,1.07
2022-11-28T17:44:44.817Z,1.30
2022-11-28T17:47:29.989Z,1.51
2022-11-28T17:50:14.960Z,1.30
2022-11-28T17:52:59.748Z,1.22
2022-11-28T17:55:44.725Z,1.25
2022-11-28T17:58:29.599Z,1.15
2022-11-28T18:01:14.620Z,1.30
2022-11-28T18:04:00.246Z,1.21
2022-11-28T18:06:44.994Z,1.27
2022-11-28T18:09:29.874Z,1.39
2022-11-28T18:12:14.743Z,1.53
2022-11-28T18:14:59.669Z,1.71
2022-11-28T18:17:44.397Z,2.43
2022-11-28T18:20:29.284Z,2.30
2022-11-28T18:23:14.266Z,2.08
2022-11-28T18:25:59.177Z,3.70
2022-11-28T18:28:44.135Z,2.43
2022-11-28T18:31:28.973Z,1.49
2022-11-28T18:34:13.793Z,1.62
2022-11-28T18:36:58.634Z,1.60
2022-11-28T18:39:43.970Z,1.51
2022-11-28T18:42:28.899Z,2.30
2022-11-28T18:45:13.812Z,2.55
2022-11-28T18:48:00.402Z,4.47
2022-11-28T18:50:45.621Z,3.18
2022-11-28T18:53:30.685Z,5.70
2022-11-28T18:56:15.471Z,4.03
2022-11-28T18:59:00.326Z,5.35
2022-11-28T19:01:45.205Z,11.62
2022-11-28T19:04:30.159Z,13.93
2022-11-28T19:07:15.145Z,8.60
2022-11-28T19:10:00.228Z,3.06
2022-11-28T19:12:45.127Z,2.63
2022-11-28T19:15:29.941Z,4.39
2022-11-28T19:18:14.909Z,4.46
2022-11-28T19:20:59.797Z,6.53
2022-11-28T19:23:44.735Z,5.91
2022-11-28T19:26:29.669Z,5.17
2022-11-28T19:29:16.808Z,5.69
2022-11-28T19:32:02.129Z,7.14
2022-11-28T19:34:47.393Z,6.88
2022-11-28T19:37:32.338Z,6.72
2022-11-28T19:40:17.415Z,6.49
2022-11-28T19:43:02.630Z,6.64
2022-11-28T19:45:47.648Z,7.26
2022-11-28T19:48:32.640Z,6.18
2022-11-28T19:51:17.532Z,5.64
2022-11-28T19:54:03.944Z,5.97
2022-11-28T19:56:49.508Z,5.70
2022-11-28T19:59:34.644Z,6.02
2022-11-28T20:02:19.696Z,6.43
2022-11-28T20:05:04.847Z,6.94
2022-11-28T20:07:53.234Z,6.21
2022-11-28T20:10:41.648Z,6.04
2022-11-28T20:13:26.682Z,8.48
2022-11-28T20:16:11.550Z,8.98
2022-11-28T20:18:56.466Z,7.45
2022-11-28T20:21:41.412Z,7.68
2022-11-28T20:24:26.330Z,7.62
2022-11-28T20:27:11.185Z,7.28
2022-11-28T20:29:56.095Z,8.70
2022-11-28T20:32:41.014Z,7.86
2022-11-28T20:35:25.827Z,7.36
2022-11-28T20:38:10.847Z,6.74
2022-11-28T20:40:55.635Z,6.44
2022-11-28T20:43:40.518Z,6.07
2022-11-28T20:46:25.303Z,6.50
2022-11-28T20:49:10.240Z,5.83
2022-11-28T20:51:55.079Z,5.76
2022-11-28T20:54:39.913Z,5.43
2022-11-28T20:57:24.681Z,5.75
2022-11-28T21:00:09.603Z,5.64
2022-11-28T21:02:54.737Z,5.58
2022-11-28T21:05:39.681Z,5.92
2022-11-28T21:08:24.745Z,5.44
2022-11-28T21:11:09.648Z,5.58
2022-11-28T21:13:54.794Z,5.36
2022-11-28T21:16:39.601Z,5.02
2022-11-28T21:19:25.129Z,5.38
2022-11-28T21:22:10.021Z,5.06
2022-11-28T21:24:54.993Z,5.39
2022-11-28T21:27:39.941Z,5.23
2022-11-28T21:30:24.758Z,5.59
2022-11-28T21:33:09.866Z,5.53
2022-11-28T21:35:54.633Z,5.40
2022-11-28T21:38:39.598Z,5.26
2022-11-28T21:41:24.581Z,5.19
2022-11-28T21:44:09.498Z,5.05
2022-11-28T21:46:54.413Z,5.19
2022-11-28T21:49:39.367Z,4.83
2022-11-28T21:52:24.216Z,4.70
2022-11-28T21:55:09.025Z,4.86
2022-11-28T21:57:53.872Z,4.64
2022-11-28T22:00:53.172Z,4.49
2022-11-28T22:03:40.050Z,4.68
2022-11-28T22:06:25.249Z,5.04
2022-11-28T22:09:10.208Z,4.81
2022-11-28T22:11:55.442Z,5.13
2022-11-28T22:14:40.297Z,4.81
2022-11-28T22:17:25.117Z,5.21
2022-11-28T22:20:10.006Z,4.87
2022-11-28T22:22:54.814Z,5.64
2022-11-28T22:25:39.666Z,5.36
2022-11-28T22:28:24.439Z,5.09
2022-11-28T22:31:09.271Z,5.55
2022-11-28T22:33:54.058Z,5.41
2022-11-28T22:36:38.980Z,5.88
2022-11-28T22:39:23.864Z,5.53
2022-11-28T22:42:08.778Z,5.37
2022-11-28T22:44:53.695Z,5.59
2022-11-28T22:47:38.810Z,5.53
2022-11-28T22:50:23.664Z,5.49
2022-11-28T22:53:08.623Z,5.75
2022-11-28T22:55:53.544Z,5.43
2022-11-28T22:58:42.427Z,5.72
2022-11-28T23:01:27.884Z,5.97
2022-11-28T23:04:12.766Z,5.54
2022-11-28T23:06:57.564Z,5.51
2022-11-28T23:09:42.563Z,5.88
2022-11-28T23:12:27.341Z,6.06
2022-11-28T23:15:12.271Z,5.78
2022-11-28T23:17:57.127Z,5.72
2022-11-28T23:20:42.143Z,6.04
2022-11-28T23:23:27.042Z,5.82
2022-11-28T23:26:11.878Z,5.47
2022-11-28T23:28:56.712Z,5.36
2022-11-28T23:31:41.618Z,5.86
2022-11-28T23:34:26.437Z,5.82
2022-11-28T23:37:11.221Z,5.59
2022-11-28T23:39:56.189Z,5.57
2022-11-28T23:42:40.999Z,5.67
2022-11-28T23:45:25.983Z,6.21
2022-11-28T23:48:10.716Z,6.11
2022-11-28T23:50:55.530Z,6.43
2022-11-28T23:53:40.405Z,6.27
2022-11-28T23:56:25.448Z,6.26
2022-11-28T23:59:10.418Z,6.27
